createdAt,value
2023-04-19T00:04:39.191Z,51.96
2023-04-19T00:09:41.991Z,51.97
2023-04-19T00:14:46.180Z,52.10
2023-04-19T00:19:49.214Z,52.35
2023-04-19T00:24:51.983Z,52.63
2023-04-19T00:29:57.350Z,52.52
2023-04-19T00:35:01.288Z,52.72
2023-04-19T00:40:05.359Z,52.89
2023-04-19T00:45:10.931Z,53.13
2023-04-19T00:50:13.764Z,52.88
2023-04-19T00:55:16.715Z,52.97
2023-04-19T01:00:21.023Z,53.40
2023-04-19T01:05:23.791Z,53.13
2023-04-19T01:10:26.536Z,53.19
2023-04-19T01:15:31.060Z,53.33
2023-04-19T01:20:33.849Z,53.37
2023-04-19T01:25:38.989Z,53.39
2023-04-19T01:30:41.831Z,53.73
2023-04-19T01:35:44.608Z,53.59
2023-04-19T01:40:49.027Z,53.62
2023-04-19T01:45:51.858Z,53.87
2023-04-19T01:50:55.681Z,53.84
2023-04-19T01:55:59.866Z,53.76
2023-04-19T02:01:02.818Z,53.63
2023-04-19T02:06:11.153Z,53.99
2023-04-19T02:11:15.479Z,53.79
2023-04-19T02:16:18.330Z,53.86
2023-04-19T02:21:21.284Z,53.81
2023-04-19T02:26:25.586Z,54.08
2023-04-19T02:31:28.336Z,53.93
2023-04-19T02:36:32.007Z,54.01
2023-04-19T02:41:36.159Z,54.24
2023-04-19T02:46:39.063Z,54.29
2023-04-19T02:51:41.888Z,54.09
2023-04-19T02:56:46.459Z,53.93
2023-04-19T03:01:50.570Z,54.04
2023-04-19T03:06:54.651Z,54.12
2023-04-19T03:11:59.216Z,54.33
2023-04-19T03:17:02.238Z,54.15
2023-04-19T03:22:05.741Z,54.36
2023-04-19T03:27:10.723Z,54.33
2023-04-19T03:32:13.944Z,54.09
2023-04-19T03:37:18.585Z,54.17
2023-04-19T03:42:23.670Z,54.04
2023-04-19T03:47:42.320Z,53.77
2023-04-19T03:52:46.135Z,53.63
2023-04-19T03:57:51.459Z,53.93
2023-04-19T04:03:01.850Z,53.91
2023-04-19T04:08:05.403Z,53.69
2023-04-19T04:13:09.798Z,53.90
2023-04-19T04:18:23.293Z,53.73
2023-04-19T04:23:26.492Z,53.83
2023-04-19T04:28:30.905Z,53.89
2023-04-19T04:33:34.400Z,53.84
2023-04-19T04:38:37.516Z,53.92
2023-04-19T04:43:42.947Z,53.78
2023-04-19T04:48:47.307Z,53.86
2023-04-19T04:53:50.215Z,54.02
2023-04-19T04:58:54.482Z,53.64
2023-04-19T05:04:04.179Z,53.85
2023-04-19T05:09:08.620Z,54.14
2023-04-19T05:14:14.035Z,53.93
2023-04-19T05:19:16.990Z,53.73
2023-04-19T05:24:25.767Z,53.57
2023-04-19T05:29:30.440Z,53.74
2023-04-19T05:34:33.729Z,53.60
2023-04-19T05:39:37.631Z,53.58
2023-04-19T05:44:41.748Z,53.44
2023-04-19T05:49:44.653Z,53.63
2023-04-19T05:54:59.043Z,53.64
2023-04-19T06:00:06.041Z,53.48
2023-04-19T06:05:30.084Z,53.34
2023-04-19T06:10:44.415Z,53.21
2023-04-19T06:15:55.879Z,53.15
2023-04-19T06:20:58.717Z,53.32
2023-04-19T06:26:01.512Z,53.08
2023-04-19T06:31:05.790Z,53.30
2023-04-19T06:36:09.193Z,52.47
2023-04-19T06:41:12.032Z,52.01
2023-04-19T06:46:16.294Z,50.50
2023-04-19T06:51:19.155Z,49.74
2023-04-19T06:56:45.558Z,49.13
2023-04-19T07:01:50.183Z,48.36
2023-04-19T07:06:53.043Z,47.47
2023-04-19T07:11:56.010Z,46.81
2023-04-19T07:17:00.184Z,45.71
2023-04-19T07:22:03.310Z,33.20
2023-04-19T07:27:06.127Z,34.89
2023-04-19T07:32:10.467Z,40.76
2023-04-19T07:37:13.350Z,40.90
2023-04-19T07:42:16.669Z,41.35
2023-04-19T07:47:20.934Z,41.85
2023-04-19T07:52:23.753Z,42.37
2023-04-19T07:57:26.648Z,42.82
2023-04-19T08:02:31.040Z,43.28
2023-04-19T08:07:34.102Z,43.99
2023-04-19T08:12:45.044Z,44.18
2023-04-19T08:17:54.809Z,44.43
2023-04-19T08:22:59.114Z,44.91
2023-04-19T08:28:03.349Z,45.04
2023-04-19T08:33:07.480Z,45.60
2023-04-19T08:38:10.563Z,45.80
2023-04-19T08:43:13.443Z,46.08
2023-04-19T08:48:18.124Z,46.20
2023-04-19T08:53:25.753Z,46.65
2023-04-19T08:58:44.524Z,46.69
2023-04-19T09:04:07.254Z,46.95
2023-04-19T09:09:33.922Z,47.18
2023-04-19T09:14:47.465Z,47.49
2023-04-19T09:19:58.760Z,47.61
2023-04-19T09:25:34.361Z,47.80
2023-04-19T09:30:31.451Z,47.89
2023-04-19T09:35:45.958Z,47.57
2023-04-19T09:40:50.446Z,47.53
2023-04-19T09:45:53.311Z,47.84
2023-04-19T09:51:02.547Z,47.63
2023-04-19T09:56:09.456Z,48.01
2023-04-19T10:01:15.758Z,47.94
2023-04-19T10:11:27.345Z,47.74
2023-04-19T10:16:31.241Z,47.80
2023-04-19T10:21:35.640Z,47.58
2023-04-19T10:27:12.041Z,47.56
2023-04-19T10:32:15.132Z,47.76
2023-04-19T10:37:22.459Z,47.44
2023-04-19T10:42:25.326Z,47.64
2023-04-19T10:47:42.289Z,47.40
2023-04-19T10:52:46.463Z,47.30
2023-04-19T10:58:05.705Z,47.21
2023-04-19T11:04:02.847Z,47.38
2023-04-19T11:09:10.008Z,47.30
2023-04-19T11:14:12.927Z,46.83
2023-04-19T11:19:16.840Z,46.79
2023-04-19T11:24:21.320Z,46.75
2023-04-19T11:29:24.087Z,47.47
2023-04-19T11:34:26.916Z,47.04
2023-04-19T11:39:31.065Z,46.66
2023-04-19T11:44:34.296Z,46.60
2023-04-19T11:49:37.066Z,47.21
2023-04-19T11:54:42.163Z,47.03
2023-04-19T12:00:04.939Z,47.32
2023-04-19T12:05:16.380Z,47.28
2023-04-19T12:10:21.235Z,46.90
2023-04-19T12:15:26.982Z,46.19
2023-04-19T12:20:32.730Z,45.83
2023-04-19T12:25:37.045Z,45.31
2023-04-19T12:30:40.088Z,45.62
2023-04-19T12:35:44.922Z,45.92
2023-04-19T12:40:49.226Z,46.36
2023-04-19T12:45:52.116Z,46.85
2023-04-19T12:50:55.102Z,47.38
2023-04-19T12:55:59.431Z,48.46
2023-04-19T13:01:02.312Z,47.88
2023-04-19T13:06:06.132Z,47.03
2023-04-19T13:11:10.777Z,45.54
2023-04-19T13:16:13.615Z,46.78
2023-04-19T13:21:16.466Z,47.25
2023-04-19T13:26:22.238Z,46.96
2023-04-19T13:31:25.383Z,47.04
2023-04-19T13:36:28.406Z,48.01
2023-04-19T13:41:32.744Z,47.78
2023-04-19T13:46:35.540Z,48.29
2023-04-19T13:51:49.681Z,48.34
2023-04-19T13:56:54.836Z,48.20
2023-04-19T14:01:57.799Z,47.77
2023-04-19T14:07:00.781Z,46.40
2023-04-19T14:12:05.639Z,46.01
2023-04-19T14:17:08.503Z,46.75
2023-04-19T14:22:11.634Z,46.42
2023-04-19T14:27:16.183Z,46.29
2023-04-19T14:32:25.298Z,47.01
2023-04-19T14:37:29.876Z,46.36
2023-04-19T14:42:34.090Z,46.72
2023-04-19T14:47:37.180Z,47.18
2023-04-19T14:52:40.412Z,47.77
2023-04-19T14:57:44.648Z,48.02
2023-04-19T15:02:47.812Z,48.21
2023-04-19T15:07:50.765Z,48.63
2023-04-19T15:12:55.489Z,49.27
2023-04-19T15:17:58.448Z,50.00
2023-04-19T15:23:01.373Z,50.52
2023-04-19T15:28:05.991Z,51.26
2023-04-19T15:33:09.183Z,50.87
2023-04-19T15:38:12.193Z,51.15
2023-04-19T15:43:16.298Z,51.29
2023-04-19T15:48:20.436Z,50.69
2023-04-19T15:53:23.219Z,49.57
2023-04-19T15:58:27.597Z,48.26
2023-04-19T16:03:30.524Z,48.03
2023-04-19T16:08:33.463Z,48.30
2023-04-19T16:13:37.706Z,47.59
2023-04-19T16:18:40.632Z,46.49
2023-04-19T16:23:43.465Z,46.79
2023-04-19T16:28:47.898Z,46.83
2023-04-19T16:33:50.928Z,46.56
2023-04-19T16:38:53.683Z,46.52
2023-04-19T16:43:57.830Z,46.85
2023-04-19T16:49:00.970Z,46.92
2023-04-19T16:54:03.820Z,47.30
2023-04-19T16:59:08.000Z,47.54
2023-04-19T17:04:10.972Z,47.52
2023-04-19T17:09:14.129Z,47.85
2023-04-19T17:14:18.626Z,48.13
2023-04-19T17:19:21.532Z,48.14
2023-04-19T17:24:24.289Z,47.94
2023-04-19T17:29:28.470Z,47.83
2023-04-19T17:34:31.282Z,47.64
2023-04-19T17:39:34.056Z,47.36
2023-04-19T17:44:38.304Z,47.14
2023-04-19T17:49:41.659Z,47.12
2023-04-19T17:54:44.432Z,47.29
2023-04-19T17:59:48.576Z,47.55
2023-04-19T18:04:51.472Z,47.43
2023-04-19T18:09:54.313Z,47.50
2023-04-19T18:14:58.523Z,47.54
2023-04-19T18:20:02.025Z,47.66
2023-04-19T18:25:05.103Z,47.70
2023-04-19T18:30:10.175Z,47.64
2023-04-19T18:35:13.556Z,47.67
2023-04-19T18:40:17.654Z,47.56
2023-04-19T18:45:21.925Z,47.69
2023-04-19T18:50:24.691Z,47.76
2023-04-19T18:55:27.546Z,47.56
2023-04-19T19:00:31.751Z,47.59
2023-04-19T19:05:34.775Z,47.67
2023-04-19T19:11:13.032Z,47.34
2023-04-19T19:16:02.452Z,47.55
2023-04-19T19:21:05.920Z,47.45
2023-04-19T19:26:08.683Z,47.42
2023-04-19T19:31:12.916Z,47.54
2023-04-19T19:36:15.798Z,47.58
2023-04-19T19:46:30.532Z,47.61
2023-04-19T19:56:53.798Z,47.42
2023-04-19T20:02:04.496Z,47.46
2023-04-19T20:07:29.342Z,47.48
2023-04-19T20:12:30.544Z,47.46
2023-04-19T20:17:34.953Z,47.45
2023-04-19T20:22:37.977Z,47.69
2023-04-19T20:27:40.815Z,47.24
2023-04-19T20:32:44.992Z,46.96
2023-04-19T20:37:47.955Z,47.02
2023-04-19T20:42:51.494Z,47.17
2023-04-19T20:47:55.799Z,47.12
2023-04-19T20:52:59.068Z,47.28
2023-04-19T20:58:02.461Z,47.13
2023-04-19T21:03:07.938Z,47.24
2023-04-19T21:08:11.043Z,47.22
2023-04-19T21:13:13.764Z,47.39
2023-04-19T21:18:18.455Z,47.22
2023-04-19T21:23:21.361Z,47.31
2023-04-19T21:28:24.892Z,47.39
2023-04-19T21:33:29.104Z,47.51
2023-04-19T21:38:32.029Z,47.37
2023-04-19T21:43:34.922Z,47.59
2023-04-19T21:48:39.073Z,47.27
2023-04-19T21:53:42.034Z,47.33
2023-04-19T21:58:44.777Z,47.43
2023-04-19T22:03:49.174Z,47.59
2023-04-19T22:08:52.311Z,47.65
2023-04-19T22:13:55.252Z,47.90
2023-04-19T22:18:59.889Z,48.00
2023-04-19T22:24:03.568Z,48.33
2023-04-19T22:29:06.473Z,48.32
2023-04-19T22:34:10.711Z,48.69
2023-04-19T22:39:13.870Z,49.23
2023-04-19T22:44:16.613Z,49.86
2023-04-19T22:49:22.375Z,49.99
2023-04-19T22:54:25.139Z,50.31
2023-04-19T22:59:27.896Z,50.46
2023-04-19T23:04:35.436Z,50.93
2023-04-19T23:09:39.150Z,51.37
2023-04-19T23:14:42.318Z,51.37
2023-04-19T23:19:46.409Z,52.11
2023-04-19T23:24:49.208Z,52.04
2023-04-19T23:29:52.027Z,52.63
2023-04-19T23:34:56.256Z,52.84
2023-04-19T23:39:59.125Z,52.90
2023-04-19T23:45:01.922Z,53.14
2023-04-19T23:50:07.057Z,53.04
2023-04-19T23:55:10.568Z,53.44
